sensor_id;sensor_type;location;lat;lon;timestamp;pressure;altitude;pressure_sealevel;temperature;humidity
74228;BME280;62587;52.352;5.006;2022-08-11T00:02:32;102377.38;;;26.15;57.28
74228;BME280;62587;52.352;5.006;2022-08-11T00:05:14;102381.97;;;26.13;57.27
74228;BME280;62587;52.352;5.006;2022-08-11T00:07:46;102382.16;;;26.10;57.21
74228;BME280;62587;52.352;5.006;2022-08-11T00:10:15;102384.13;;;26.08;57.24
74228;BME280;62587;52.352;5.006;2022-08-11T00:12:42;102385.19;;;26.06;57.15
74228;BME280;62587;52.352;5.006;2022-08-11T00:15:09;102385.19;;;26.06;57.08
74228;BME280;62587;52.352;5.006;2022-08-11T00:17:35;102380.88;;;26.03;57.17
74228;BME280;62587;52.352;5.006;2022-08-11T00:20:12;102381.63;;;26.05;57.06
74228;BME280;62587;52.352;5.006;2022-08-11T00:22:40;102385.28;;;26.04;57.02
74228;BME280;62587;52.352;5.006;2022-08-11T00:25:19;102383.47;;;26.05;56.82
74228;BME280;62587;52.352;5.006;2022-08-11T00:27:46;102385.41;;;26.03;56.87
74228;BME280;62587;52.352;5.006;2022-08-11T00:30:12;102389.78;;;26.04;56.89
74228;BME280;62587;52.352;5.006;2022-08-11T00:32:40;102385.41;;;26.03;56.82
74228;BME280;62587;52.352;5.006;2022-08-11T00:35:10;102381.84;;;26.02;56.70
74228;BME280;62587;52.352;5.006;2022-08-11T00:37:37;102389.03;;;26.02;56.84
74228;BME280;62587;52.352;5.006;2022-08-11T00:40:07;102388.06;;;26.03;56.83
74228;BME280;62587;52.352;5.006;2022-08-11T00:42:47;102384.72;;;25.99;56.80
74228;BME280;62587;52.352;5.006;2022-08-11T00:45:32;102386.47;;;26.00;56.56
74228;BME280;62587;52.352;5.006;2022-08-11T00:48:18;102381.09;;;26.00;56.67
74228;BME280;62587;52.352;5.006;2022-08-11T00:51:10;102379.38;;;25.99;56.79
74228;BME280;62587;52.352;5.006;2022-08-11T00:53:44;102383.78;;;26.00;56.58
74228;BME280;62587;52.352;5.006;2022-08-11T01:01:57;102379.50;;;25.98;56.63
74228;BME280;62587;52.352;5.006;2022-08-11T01:14:50;102379.59;;;25.96;56.49
74228;BME280;62587;52.352;5.006;2022-08-11T01:20:41;102376.91;;;25.96;56.48
74228;BME280;62587;52.352;5.006;2022-08-11T01:23:30;102377.88;;;25.95;56.21
74228;BME280;62587;52.352;5.006;2022-08-11T01:45:31;102373.69;;;25.91;56.05
74228;BME280;62587;52.352;5.006;2022-08-11T01:48:25;102371.84;;;25.91;55.94
74228;BME280;62587;52.352;5.006;2022-08-11T01:54:08;102367.34;;;25.92;55.65
74228;BME280;62587;52.352;5.006;2022-08-11T02:07:36;102361.34;;;25.88;55.55
74228;BME280;62587;52.352;5.006;2022-08-11T02:15:55;102355.97;;;25.88;55.54
74228;BME280;62587;52.352;5.006;2022-08-11T02:18:39;102359.63;;;25.87;55.55
74228;BME280;62587;52.352;5.006;2022-08-11T02:21:40;102355.13;;;25.88;55.32
74228;BME280;62587;52.352;5.006;2022-08-11T02:24:34;102354.38;;;25.86;55.34
74228;BME280;62587;52.352;5.006;2022-08-11T02:27:07;102355.25;;;25.86;55.40
74228;BME280;62587;52.352;5.006;2022-08-11T02:29:57;102353.38;;;25.87;55.24
74228;BME280;62587;52.352;5.006;2022-08-11T02:36:06;102349.88;;;25.86;55.05
74228;BME280;62587;52.352;5.006;2022-08-11T02:38:50;102353.31;;;25.88;54.86
74228;BME280;62587;52.352;5.006;2022-08-11T02:44:25;102351.69;;;25.86;54.79
74228;BME280;62587;52.352;5.006;2022-08-11T02:49:35;102346.53;;;25.83;54.76
74228;BME280;62587;52.352;5.006;2022-08-11T02:57:52;102344.78;;;25.82;54.71
74228;BME280;62587;52.352;5.006;2022-08-11T03:00:19;102349.22;;;25.83;54.73
74228;BME280;62587;52.352;5.006;2022-08-11T03:02:51;102338.59;;;25.81;54.61
74228;BME280;62587;52.352;5.006;2022-08-11T03:08:20;102336.75;;;25.82;54.42
74228;BME280;62587;52.352;5.006;2022-08-11T03:11:06;102335.91;;;25.81;54.41
74228;BME280;62587;52.352;5.006;2022-08-11T03:14:18;102341.28;;;25.81;54.25
74228;BME280;62587;52.352;5.006;2022-08-11T03:23:05;102328.69;;;25.82;54.22
74228;BME280;62587;52.352;5.006;2022-08-11T03:28:52;102327.00;;;25.81;53.95
74228;BME280;62587;52.352;5.006;2022-08-11T03:31:33;102326.13;;;25.80;53.97
74228;BME280;62587;52.352;5.006;2022-08-11T03:34:07;102323.31;;;25.82;53.91
74228;BME280;62587;52.352;5.006;2022-08-11T03:42:32;102318.28;;;25.77;53.72
74228;BME280;62587;52.352;5.006;2022-08-11T03:45:16;102323.66;;;25.77;53.84
74228;BME280;62587;52.352;5.006;2022-08-11T03:48:24;102324.31;;;25.81;53.63
74228;BME280;62587;52.352;5.006;2022-08-11T03:51:22;102319.06;;;25.79;53.64
74228;BME280;62587;52.352;5.006;2022-08-11T03:54:00;102318.28;;;25.77;53.53
74228;BME280;62587;52.352;5.006;2022-08-11T04:16:14;102331.81;;;25.76;53.54
74228;BME280;62587;52.352;5.006;2022-08-11T04:33:33;102327.84;;;25.81;53.17
74228;BME280;62587;52.352;5.006;2022-08-11T04:36:34;102326.00;;;25.82;53.07
74228;BME280;62587;52.352;5.006;2022-08-11T04:45:34;102320.75;;;25.80;52.89
74228;BME280;62587;52.352;5.006;2022-08-11T05:10:33;102320.22;;;25.75;52.98
74228;BME280;62587;52.352;5.006;2022-08-11T05:13:06;102316.59;;;25.76;52.93
74228;BME280;62587;52.352;5.006;2022-08-11T05:15:53;102316.59;;;25.76;53.00
74228;BME280;62587;52.352;5.006;2022-08-11T05:18:56;102314.78;;;25.77;52.87
74228;BME280;62587;52.352;5.006;2022-08-11T05:21:45;102318.41;;;25.76;52.85
74228;BME280;62587;52.352;5.006;2022-08-11T05:24:41;102315.72;;;25.76;53.00
74228;BME280;62587;52.352;5.006;2022-08-11T05:27:32;102322.81;;;25.77;52.97
74228;BME280;62587;52.352;5.006;2022-08-11T05:30:19;102327.31;;;25.76;53.02
74228;BME280;62587;52.352;5.006;2022-08-11T05:33:19;102319.28;;;25.76;52.90
74228;BME280;62587;52.352;5.006;2022-08-11T05:36:12;102334.38;;;25.77;52.90
74228;BME280;62587;52.352;5.006;2022-08-11T05:38:49;102326.34;;;25.77;52.95
74228;BME280;62587;52.352;5.006;2022-08-11T05:41:37;102329.88;;;25.78;52.91
74228;BME280;62587;52.352;5.006;2022-08-11T05:44:23;102328.06;;;25.78;52.81
74228;BME280;62587;52.352;5.006;2022-08-11T05:47:09;102333.44;;;25.78;52.80
74228;BME280;62587;52.352;5.006;2022-08-11T05:49:54;102331.63;;;25.79;52.87
74228;BME280;62587;52.352;5.006;2022-08-11T05:52:38;102329.81;;;25.79;52.79
74228;BME280;62587;52.352;5.006;2022-08-11T05:55:23;102340.41;;;25.81;52.93
74228;BME280;62587;52.352;5.006;2022-08-11T05:58:08;102336.97;;;25.79;52.90
74228;BME280;62587;52.352;5.006;2022-08-11T06:00:44;102345.03;;;25.79;52.80
74228;BME280;62587;52.352;5.006;2022-08-11T06:03:11;102339.53;;;25.80;52.80
74228;BME280;62587;52.352;5.006;2022-08-11T06:05:44;102346.72;;;25.80;52.78
74228;BME280;62587;52.352;5.006;2022-08-11T06:08:12;102339.53;;;25.80;52.67
74228;BME280;62587;52.352;5.006;2022-08-11T06:10:42;102339.44;;;25.82;52.46
74228;BME280;62587;52.352;5.006;2022-08-11T06:13:10;102337.72;;;25.81;52.54
74228;BME280;62587;52.352;5.006;2022-08-11T06:15:46;102340.28;;;25.82;52.63
74228;BME280;62587;52.352;5.006;2022-08-11T06:18:12;102347.47;;;25.82;52.52
74228;BME280;62587;52.352;5.006;2022-08-11T06:20:50;102349.22;;;25.83;52.66
74228;BME280;62587;52.352;5.006;2022-08-11T06:23:16;102356.31;;;25.84;52.41
74228;BME280;62587;52.352;5.006;2022-08-11T06:25:45;102346.53;;;25.83;52.59
74228;BME280;62587;52.352;5.006;2022-08-11T06:28:11;102345.56;;;25.84;52.70
74228;BME280;62587;52.352;5.006;2022-08-11T06:30:40;102341.91;;;25.85;52.51
74228;BME280;62587;52.352;5.006;2022-08-11T06:33:14;102341.03;;;25.84;52.49
74228;BME280;62587;52.352;5.006;2022-08-11T06:38:22;102342.66;;;25.87;52.65
74228;BME280;62587;52.352;5.006;2022-08-11T06:40:53;102346.19;;;25.87;52.58
74228;BME280;62587;52.352;5.006;2022-08-11T06:43:48;102340.84;;;25.87;52.72
74228;BME280;62587;52.352;5.006;2022-08-11T06:46:27;102349.00;;;25.86;52.56
74228;BME280;62587;52.352;5.006;2022-08-11T06:48:54;102343.63;;;25.86;52.59
74228;BME280;62587;52.352;5.006;2022-08-11T06:51:20;102349.88;;;25.86;52.67
74228;BME280;62587;52.352;5.006;2022-08-11T06:53:52;102349.88;;;25.86;52.54
74228;BME280;62587;52.352;5.006;2022-08-11T06:56:25;102344.50;;;25.86;52.71
74228;BME280;62587;52.352;5.006;2022-08-11T06:59:12;102343.50;;;25.87;52.65
74228;BME280;62587;52.352;5.006;2022-08-11T07:02:07;102344.25;;;25.89;52.65
74228;BME280;62587;52.352;5.006;2022-08-11T07:04:45;102335.47;;;25.87;52.70
74228;BME280;62587;52.352;5.006;2022-08-11T07:10:26;102336.13;;;25.78;52.75
74228;BME280;62587;52.352;5.006;2022-08-11T07:13:15;102335.47;;;25.62;52.83
74228;BME280;62587;52.352;5.006;2022-08-11T07:16:02;102339.50;;;25.43;53.52
74228;BME280;62587;52.352;5.006;2022-08-11T07:18:32;102341.03;;;25.20;54.55
74228;BME280;62587;52.352;5.006;2022-08-11T07:21:23;102342.34;;;25.14;54.82
74228;BME280;62587;52.352;5.006;2022-08-11T07:24:26;102338.34;;;25.20;54.30
74228;BME280;62587;52.352;5.006;2022-08-11T07:27:17;102347.03;;;25.11;54.42
74228;BME280;62587;52.352;5.006;2022-08-11T07:30:08;102348.72;;;24.99;54.78
74228;BME280;62587;52.352;5.006;2022-08-11T07:32:45;102344.81;;;24.91;55.15
74228;BME280;62587;52.352;5.006;2022-08-11T07:35:16;102346.16;;;24.84;55.01
74228;BME280;62587;52.352;5.006;2022-08-11T07:37:46;102344.16;;;24.87;55.00
74228;BME280;62587;52.352;5.006;2022-08-11T07:40:20;102346.53;;;24.92;54.69
74228;BME280;62587;52.352;5.006;2022-08-11T07:42:46;102343.84;;;24.92;54.65
74228;BME280;62587;52.352;5.006;2022-08-11T07:45:12;102340.81;;;24.84;54.87
74228;BME280;62587;52.352;5.006;2022-08-11T07:47:56;102344.03;;;24.89;54.91
74228;BME280;62587;52.352;5.006;2022-08-11T07:50:42;102338.13;;;24.84;55.04
74228;BME280;62587;52.352;5.006;2022-08-11T07:53:26;102336.50;;;24.81;54.96
74228;BME280;62587;52.352;5.006;2022-08-11T07:55:57;102341.78;;;24.83;54.93
74228;BME280;62587;52.352;5.006;2022-08-11T07:58:24;102332.03;;;24.82;54.63
74228;BME280;62587;52.352;5.006;2022-08-11T08:01:08;102337.50;;;24.80;54.53
74228;BME280;62587;52.352;5.006;2022-08-11T08:03:54;102334.22;;;24.75;55.69
74228;BME280;62587;52.352;5.006;2022-08-11T08:06:39;102338.91;;;24.86;56.56
74228;BME280;62587;52.352;5.006;2022-08-11T08:09:23;102340.78;;;24.98;56.38
74228;BME280;62587;52.352;5.006;2022-08-11T08:12:08;102334.06;;;25.05;56.25
74228;BME280;62587;52.352;5.006;2022-08-11T08:14:54;102334.28;;;25.14;56.06
74228;BME280;62587;52.352;5.006;2022-08-11T08:17:43;102332.81;;;25.23;55.64
74228;BME280;62587;52.352;5.006;2022-08-11T08:20:20;102340.41;;;25.29;55.52
74228;BME280;62587;52.352;5.006;2022-08-11T08:22:51;102341.81;;;25.35;55.50
74228;BME280;62587;52.352;5.006;2022-08-11T08:25:22;102343.13;;;25.42;55.39
74228;BME280;62587;52.352;5.006;2022-08-11T08:27:50;102339.22;;;25.47;55.06
74228;BME280;62587;52.352;5.006;2022-08-11T08:30:16;102342.44;;;25.52;55.08
74228;BME280;62587;52.352;5.006;2022-08-11T08:33:01;102341.38;;;25.55;54.85
74228;BME280;62587;52.352;5.006;2022-08-11T08:35:27;102340.31;;;25.57;54.88
74228;BME280;62587;52.352;5.006;2022-08-11T08:37:56;102347.16;;;25.61;54.57
74228;BME280;62587;52.352;5.006;2022-08-11T08:40:21;102346.97;;;25.64;54.76
74228;BME280;62587;52.352;5.006;2022-08-11T08:42:58;102344.28;;;25.64;54.88
74228;BME280;62587;52.352;5.006;2022-08-11T08:45:26;102345.88;;;25.67;54.40
74228;BME280;62587;52.352;5.006;2022-08-11T08:47:59;102351.69;;;25.73;54.38
74228;BME280;62587;52.352;5.006;2022-08-11T08:50:31;102349.66;;;25.77;54.23
74228;BME280;62587;52.352;5.006;2022-08-11T08:53:23;102350.41;;;25.79;54.29
74228;BME280;62587;52.352;5.006;2022-08-11T08:55:54;102347.59;;;25.80;54.18
74228;BME280;62587;52.352;5.006;2022-08-11T08:58:22;102347.47;;;25.82;54.03
74228;BME280;62587;52.352;5.006;2022-08-11T09:00:49;102350.06;;;25.83;53.98
74228;BME280;62587;52.352;5.006;2022-08-11T09:03:16;102341.16;;;25.83;53.71
74228;BME280;62587;52.352;5.006;2022-08-11T09:05:43;102340.09;;;25.85;53.75
74228;BME280;62587;52.352;5.006;2022-08-11T09:08:10;102336.44;;;25.86;53.81
74228;BME280;62587;52.352;5.006;2022-08-11T09:10:36;102339.88;;;25.88;53.58
74228;BME280;62587;52.352;5.006;2022-08-11T09:13:03;102338.81;;;25.91;53.52
74228;BME280;62587;52.352;5.006;2022-08-11T09:15:30;102338.69;;;25.92;53.44
74228;BME280;62587;52.352;5.006;2022-08-11T09:17:59;102345.78;;;25.93;53.41
74228;BME280;62587;52.352;5.006;2022-08-11T09:20:32;102336.75;;;25.94;53.32
74228;BME280;62587;52.352;5.006;2022-08-11T09:23:01;102333.00;;;25.97;53.08
74228;BME280;62587;52.352;5.006;2022-08-11T09:25:46;102333.84;;;25.98;53.29
74228;BME280;62587;52.352;5.006;2022-08-11T09:28:31;102330.31;;;25.97;53.27
74228;BME280;62587;52.352;5.006;2022-08-11T09:30:58;102327.53;;;25.99;53.14
74228;BME280;62587;52.352;5.006;2022-08-11T09:33:26;102323.13;;;25.98;53.08
74228;BME280;62587;52.352;5.006;2022-08-11T09:35:52;102328.38;;;25.99;53.20
74228;BME280;62587;52.352;5.006;2022-08-11T09:38:22;102335.59;;;25.99;53.21
74228;BME280;62587;52.352;5.006;2022-08-11T09:41:08;102323.88;;;26.00;53.12
74228;BME280;62587;52.352;5.006;2022-08-11T09:43:43;102329.09;;;26.01;53.15
74228;BME280;62587;52.352;5.006;2022-08-11T09:46:30;102322.78;;;26.02;53.24
74228;BME280;62587;52.352;5.006;2022-08-11T09:48:58;102329.03;;;26.03;53.10
74228;BME280;62587;52.352;5.006;2022-08-11T09:51:27;102326.34;;;26.03;53.31
74228;BME280;62587;52.352;5.006;2022-08-11T09:53:54;102329.09;;;26.01;53.32
74228;BME280;62587;52.352;5.006;2022-08-11T09:56:22;102324.53;;;26.03;53.39
74228;BME280;62587;52.352;5.006;2022-08-11T09:59:16;102316.34;;;26.05;53.27
74228;BME280;62587;52.352;5.006;2022-08-11T10:01:46;102319.16;;;26.03;53.34
74228;BME280;62587;52.352;5.006;2022-08-11T10:04:15;102321.06;;;26.01;53.68
74228;BME280;62587;52.352;5.006;2022-08-11T10:06:47;102326.34;;;26.03;53.71
74228;BME280;62587;52.352;5.006;2022-08-11T10:09:28;102318.28;;;26.03;53.65
74228;BME280;62587;52.352;5.006;2022-08-11T10:11:58;102315.47;;;26.04;53.71
74228;BME280;62587;52.352;5.006;2022-08-11T10:14:29;102317.22;;;26.05;53.82
74228;BME280;62587;52.352;5.006;2022-08-11T10:17:16;102315.59;;;26.03;53.83
74228;BME280;62587;52.352;5.006;2022-08-11T10:19:45;102311.84;;;26.05;53.80
74228;BME280;62587;52.352;5.006;2022-08-11T10:22:13;102311.84;;;26.05;54.01
74228;BME280;62587;52.352;5.006;2022-08-11T10:24:59;102308.16;;;26.06;54.03
74228;BME280;62587;52.352;5.006;2022-08-11T10:27:44;102307.34;;;26.06;54.09
74228;BME280;62587;52.352;5.006;2022-08-11T10:30:11;102301.97;;;26.06;54.28
74228;BME280;62587;52.352;5.006;2022-08-11T10:32:58;102307.22;;;26.07;54.25
74228;BME280;62587;52.352;5.006;2022-08-11T10:35:43;102304.53;;;26.07;54.57
74228;BME280;62587;52.352;5.006;2022-08-11T10:38:12;102296.69;;;26.04;54.50
74228;BME280;62587;52.352;5.006;2022-08-11T10:40:40;102306.47;;;26.05;54.59
74228;BME280;62587;52.352;5.006;2022-08-11T10:43:10;102300.44;;;26.02;54.85
74228;BME280;62587;52.352;5.006;2022-08-11T10:45:41;102304.94;;;26.01;55.24
74228;BME280;62587;52.352;5.006;2022-08-11T10:48:27;102296.16;;;25.99;55.21
74228;BME280;62587;52.352;5.006;2022-08-11T10:50:54;102298.84;;;25.99;55.17
74228;BME280;62587;52.352;5.006;2022-08-11T10:53:44;102297.03;;;26.00;55.37
74228;BME280;62587;52.352;5.006;2022-08-11T10:56:32;102285.22;;;26.02;55.27
74228;BME280;62587;52.352;5.006;2022-08-11T10:59:17;102288.75;;;26.03;55.34
74228;BME280;62587;52.352;5.006;2022-08-11T11:01:44;102290.44;;;26.04;55.44
74228;BME280;62587;52.352;5.006;2022-08-11T11:04:20;102283.25;;;26.04;55.51
74228;BME280;62587;52.352;5.006;2022-08-11T11:07:03;102280.59;;;26.04;55.50
74228;BME280;62587;52.352;5.006;2022-08-11T11:09:31;102279.50;;;26.07;55.49
74228;BME280;62587;52.352;5.006;2022-08-11T11:12:06;102277.69;;;26.07;55.47
74228;BME280;62587;52.352;5.006;2022-08-11T11:14:52;102275.00;;;26.07;55.34
74228;BME280;62587;52.352;5.006;2022-08-11T11:17:39;102280.25;;;26.09;55.19
74228;BME280;62587;52.352;5.006;2022-08-11T11:20:34;102274.69;;;26.12;55.26
74228;BME280;62587;52.352;5.006;2022-08-11T11:32:10;102274.28;;;26.18;54.93
74228;BME280;62587;52.352;5.006;2022-08-11T11:37:33;102275.09;;;26.18;55.11
74228;BME280;62587;52.352;5.006;2022-08-11T11:40:00;102258.03;;;26.19;55.05
74228;BME280;62587;52.352;5.006;2022-08-11T11:42:27;102266.97;;;26.20;55.21
74228;BME280;62587;52.352;5.006;2022-08-11T11:44:54;102257.56;;;26.25;54.56
74228;BME280;62587;52.352;5.006;2022-08-11T11:47:20;102260.78;;;26.30;54.43
74228;BME280;62587;52.352;5.006;2022-08-11T11:49:47;102258.63;;;26.35;54.25
74228;BME280;62587;52.352;5.006;2022-08-11T11:52:15;102262.34;;;26.45;53.97
74228;BME280;62587;52.352;5.006;2022-08-11T11:54:44;102256.50;;;26.51;53.84
74228;BME280;62587;52.352;5.006;2022-08-11T11:57:11;102257.16;;;26.55;53.57
74228;BME280;62587;52.352;5.006;2022-08-11T11:59:57;102252.50;;;26.57;53.78
74228;BME280;62587;52.352;5.006;2022-08-11T12:02:42;102249.47;;;26.61;53.43
74228;BME280;62587;52.352;5.006;2022-08-11T12:05:09;102250.97;;;26.66;53.24
74228;BME280;62587;52.352;5.006;2022-08-11T12:07:35;102250.63;;;26.70;53.27
74228;BME280;62587;52.352;5.006;2022-08-11T12:10:20;102241.56;;;26.71;53.06
74228;BME280;62587;52.352;5.006;2022-08-11T12:12:46;102239.53;;;26.75;52.84
74228;BME280;62587;52.352;5.006;2022-08-11T12:15:31;102239.22;;;26.79;52.75
74228;BME280;62587;52.352;5.006;2022-08-11T12:17:58;102240.09;;;26.91;52.70
74228;BME280;62587;52.352;5.006;2022-08-11T12:20:24;102239.41;;;27.00;51.96
74228;BME280;62587;52.352;5.006;2022-08-11T12:22:50;102231.09;;;27.03;52.16
74228;BME280;62587;52.352;5.006;2022-08-11T12:25:35;102231.84;;;27.05;51.85
74228;BME280;62587;52.352;5.006;2022-08-11T12:28:20;102230.75;;;27.07;51.96
74228;BME280;62587;52.352;5.006;2022-08-11T12:30:48;102228.06;;;27.07;51.94
74228;BME280;62587;52.352;5.006;2022-08-11T12:33:15;102218.91;;;27.10;51.76
74228;BME280;62587;52.352;5.006;2022-08-11T12:35:42;102216.34;;;27.08;51.82
74228;BME280;62587;52.352;5.006;2022-08-11T12:38:08;102216.06;;;27.11;51.61
74228;BME280;62587;52.352;5.006;2022-08-11T12:40:34;102207.03;;;27.12;51.40
74228;BME280;62587;52.352;5.006;2022-08-11T12:43:20;102211.56;;;27.12;51.53
74228;BME280;62587;52.352;5.006;2022-08-11T12:46:11;102206.59;;;27.18;50.97
74228;BME280;62587;52.352;5.006;2022-08-11T12:48:46;102217.09;;;27.21;51.01
74228;BME280;62587;52.352;5.006;2022-08-11T12:51:36;102204.63;;;27.20;50.90
74228;BME280;62587;52.352;5.006;2022-08-11T12:54:26;102199.00;;;27.23;50.92
74228;BME280;62587;52.352;5.006;2022-08-11T12:56:59;102200.47;;;27.27;50.65
74228;BME280;62587;52.352;5.006;2022-08-11T12:59:44;102194.00;;;27.30;50.70
74228;BME280;62587;52.352;5.006;2022-08-11T13:02:29;102192.78;;;27.34;50.58
74228;BME280;62587;52.352;5.006;2022-08-11T13:05:14;102194.38;;;27.37;50.28
74228;BME280;62587;52.352;5.006;2022-08-11T13:07:43;102196.72;;;27.41;50.12
74228;BME280;62587;52.352;5.006;2022-08-11T13:10:11;102201.97;;;27.43;50.37
74228;BME280;62587;52.352;5.006;2022-08-11T13:12:38;102193.66;;;27.46;50.06
74228;BME280;62587;52.352;5.006;2022-08-11T13:15:19;102196.25;;;27.47;50.49
74228;BME280;62587;52.352;5.006;2022-08-11T13:17:46;102189.88;;;27.48;50.39
74228;BME280;62587;52.352;5.006;2022-08-11T13:20:13;102190.59;;;27.50;50.13
74228;BME280;62587;52.352;5.006;2022-08-11T13:22:41;102186.81;;;27.53;50.31
74228;BME280;62587;52.352;5.006;2022-08-11T13:25:12;102181.44;;;27.53;50.17
74228;BME280;62587;52.352;5.006;2022-08-11T13:27:41;102191.22;;;27.54;50.05
74228;BME280;62587;52.352;5.006;2022-08-11T13:30:07;102183.88;;;27.56;49.74
74228;BME280;62587;52.352;5.006;2022-08-11T13:32:52;102180.22;;;27.57;49.48
74228;BME280;62587;52.352;5.006;2022-08-11T13:35:18;102178.28;;;27.59;49.77
74228;BME280;62587;52.352;5.006;2022-08-11T13:37:45;102179.13;;;27.59;49.41
74228;BME280;62587;52.352;5.006;2022-08-11T13:40:12;102180.81;;;27.60;49.36
74228;BME280;62587;52.352;5.006;2022-08-11T13:42:39;102176.06;;;27.64;49.55
74228;BME280;62587;52.352;5.006;2022-08-11T13:45:06;102175.31;;;27.62;49.79
74228;BME280;62587;52.352;5.006;2022-08-11T13:47:33;102168.00;;;27.64;49.55
74228;BME280;62587;52.352;5.006;2022-08-11T13:49:59;102178.88;;;27.62;49.45
74228;BME280;62587;52.352;5.006;2022-08-11T13:52:26;102175.94;;;27.65;49.15
74228;BME280;62587;52.352;5.006;2022-08-11T13:54:52;102180.22;;;27.68;49.41
74228;BME280;62587;52.352;5.006;2022-08-11T13:57:18;102170.19;;;27.70;48.95
74228;BME280;62587;52.352;5.006;2022-08-11T13:59:46;102161.22;;;27.69;49.42
74228;BME280;62587;52.352;5.006;2022-08-11T14:02:16;102155.63;;;27.72;49.17
74228;BME280;62587;52.352;5.006;2022-08-11T14:04:46;102156.47;;;27.73;49.17
74228;BME280;62587;52.352;5.006;2022-08-11T14:07:17;102159.91;;;27.75;49.02
74228;BME280;62587;52.352;5.006;2022-08-11T14:09:44;102156.09;;;27.77;49.27
74228;BME280;62587;52.352;5.006;2022-08-11T14:12:20;102150.72;;;27.77;48.98
74228;BME280;62587;52.352;5.006;2022-08-11T14:15:11;102149.13;;;27.75;49.22
74228;BME280;62587;52.352;5.006;2022-08-11T14:17:39;102152.53;;;27.77;49.12
74228;BME280;62587;52.352;5.006;2022-08-11T14:20:07;102154.16;;;27.68;48.86
74228;BME280;62587;52.352;5.006;2022-08-11T14:22:36;102147.28;;;27.64;49.28
74228;BME280;62587;52.352;5.006;2022-08-11T14:25:04;102137.78;;;27.60;49.19
74228;BME280;62587;52.352;5.006;2022-08-11T14:27:30;102138.16;;;27.56;49.61
74228;BME280;62587;52.352;5.006;2022-08-11T14:29:57;102140.97;;;27.54;49.79
74228;BME280;62587;52.352;5.006;2022-08-11T14:32:23;102131.41;;;27.50;49.83
74228;BME280;62587;52.352;5.006;2022-08-11T14:34:49;102134.97;;;27.51;49.66
74228;BME280;62587;52.352;5.006;2022-08-11T14:37:20;102127.88;;;27.50;49.51
74228;BME280;62587;52.352;5.006;2022-08-11T14:39:49;102126.91;;;27.51;49.12
74228;BME280;62587;52.352;5.006;2022-08-11T14:42:17;102117.97;;;27.50;49.16
74228;BME280;62587;52.352;5.006;2022-08-11T14:45:08;102123.25;;;27.52;49.57
74228;BME280;62587;52.352;5.006;2022-08-11T14:47:56;102124.06;;;27.52;49.29
74228;BME280;62587;52.352;5.006;2022-08-11T14:50:25;102112.47;;;27.52;49.48
74228;BME280;62587;52.352;5.006;2022-08-11T14:52:55;102119.56;;;27.53;49.25
74228;BME280;62587;52.352;5.006;2022-08-11T14:55:23;102116.00;;;27.52;49.21
74228;BME280;62587;52.352;5.006;2022-08-11T14:58:15;102111.38;;;27.54;49.55
74228;BME280;62587;52.352;5.006;2022-08-11T15:00:41;102105.84;;;27.56;49.17
74228;BME280;62587;52.352;5.006;2022-08-11T15:03:10;102105.84;;;27.56;49.50
74228;BME280;62587;52.352;5.006;2022-08-11T15:05:57;102104.03;;;27.56;48.98
74228;BME280;62587;52.352;5.006;2022-08-11T15:08:28;102105.72;;;27.57;48.99
74228;BME280;62587;52.352;5.006;2022-08-11T15:11:14;102105.72;;;27.57;49.29
74228;BME280;62587;52.352;5.006;2022-08-11T15:14:01;102106.59;;;27.58;48.88
74228;BME280;62587;52.352;5.006;2022-08-11T15:16:28;102104.75;;;27.58;49.22
74228;BME280;62587;52.352;5.006;2022-08-11T15:19:13;102102.06;;;27.58;48.92
74228;BME280;62587;52.352;5.006;2022-08-11T15:21:40;102101.09;;;27.59;48.97
74228;BME280;62587;52.352;5.006;2022-08-11T15:24:24;102099.13;;;27.61;48.74
74228;BME280;62587;52.352;5.006;2022-08-11T15:26:51;102096.44;;;27.61;49.00
74228;BME280;62587;52.352;5.006;2022-08-11T15:29:38;102099.97;;;27.62;48.73
74228;BME280;62587;52.352;5.006;2022-08-11T15:32:25;102094.47;;;27.63;48.69
74228;BME280;62587;52.352;5.006;2022-08-11T15:35:09;102093.38;;;27.66;48.48
74228;BME280;62587;52.352;5.006;2022-08-11T15:37:57;102082.59;;;27.66;48.92
74228;BME280;62587;52.352;5.006;2022-08-11T15:40:30;102082.47;;;27.67;48.76
74228;BME280;62587;52.352;5.006;2022-08-11T15:46:13;102068.75;;;27.70;48.58
74228;BME280;62587;52.352;5.006;2022-08-11T15:48:43;102074.00;;;27.72;48.73
74228;BME280;62587;52.352;5.006;2022-08-11T15:51:34;102068.53;;;27.73;48.71
74228;BME280;62587;52.352;5.006;2022-08-11T15:54:05;102067.53;;;27.74;48.63
74228;BME280;62587;52.352;5.006;2022-08-11T15:56:34;102063.84;;;27.75;48.92
74228;BME280;62587;52.352;5.006;2022-08-11T15:59:02;102059.19;;;27.77;48.69
74228;BME280;62587;52.352;5.006;2022-08-11T16:01:50;102058.22;;;27.78;48.72
74228;BME280;62587;52.352;5.006;2022-08-11T16:04:55;102055.53;;;27.78;48.74
74228;BME280;62587;52.352;5.006;2022-08-11T16:07:24;102058.94;;;27.80;48.77
74228;BME280;62587;52.352;5.006;2022-08-11T16:10:17;102050.88;;;27.80;48.90
74228;BME280;62587;52.352;5.006;2022-08-11T16:13:04;102050.50;;;27.85;48.66
74228;BME280;62587;52.352;5.006;2022-08-11T16:15:39;102051.34;;;27.85;48.81
74228;BME280;62587;52.352;5.006;2022-08-11T16:18:30;102050.34;;;27.86;48.84
74228;BME280;62587;52.352;5.006;2022-08-11T16:21:09;102045.97;;;27.85;49.22
74228;BME280;62587;52.352;5.006;2022-08-11T16:23:36;102039.59;;;27.86;48.82
74228;BME280;62587;52.352;5.006;2022-08-11T16:26:04;102046.69;;;27.87;48.74
74228;BME280;62587;52.352;5.006;2022-08-11T16:28:32;102046.69;;;27.87;49.23
74228;BME280;62587;52.352;5.006;2022-08-11T16:31:00;102050.09;;;27.89;48.70
74228;BME280;62587;52.352;5.006;2022-08-11T16:33:26;102040.44;;;27.87;49.26